Time;durP1;ratioP1;P1;durP2;ratioP2;P2;SDS_P1;SDS_P2;PMS_P1;PMS_P2;Temp;Humidity;BMP_temperature;BMP_pressure;BME280_temperature;BME280_humidity;BME280_pressure;Samples;Min_cycle;Max_cycle;Signal;HPM_P1;HPM_P2
2022/05/08 00:02:18;;;;;;;5.00;2.67;;;;;;;13.49;81.53;101701.50;4897890;29;20028;-74
2022/05/08 00:05:04;;;;;;;5.93;3.00;;;;;;;13.55;81.06;101699.66;4898551;29;20103;-74
2022/05/08 00:07:50;;;;;;;9.00;3.30;;;;;;;13.56;80.63;101696.16;4900299;29;20063;-74
2022/05/08 00:10:35;;;;;;;6.03;3.05;;;;;;;13.27;81.29;101687.75;4901541;29;20047;-74
2022/05/08 00:13:21;;;;;;;5.88;3.15;;;;;;;13.05;83.40;101694.19;4902350;29;20072;-74
2022/05/08 00:16:07;;;;;;;7.72;3.20;;;;;;;13.29;80.07;101683.34;4901654;29;20055;-75
2022/05/08 00:18:53;;;;;;;6.18;3.08;;;;;;;13.32;80.39;101679.81;4900950;29;20468;-73
2022/05/08 00:21:39;;;;;;;8.00;3.30;;;;;;;13.30;80.99;101692.13;4901092;29;20028;-74
2022/05/08 00:24:25;;;;;;;6.50;3.08;;;;;;;13.47;80.43;101687.50;4901015;29;20387;-74
2022/05/08 00:27:11;;;;;;;6.07;3.10;;;;;;;13.32;81.24;101695.59;4899667;29;20048;-74
2022/05/08 00:29:56;;;;;;;5.97;3.15;;;;;;;13.07;85.04;101702.91;4901719;29;20446;-73
2022/05/08 00:32:42;;;;;;;8.68;3.40;;;;;;;13.07;87.40;101707.34;4903741;29;20134;-74
2022/05/08 00:35:28;;;;;;;7.85;3.28;;;;;;;12.66;91.26;101702.47;4901278;29;20115;-75
2022/05/08 00:38:14;;;;;;;7.53;3.15;;;;;;;12.64;93.54;101706.03;4913927;29;20442;-74
2022/05/08 00:41:00;;;;;;;6.22;3.60;;;;;;;12.62;93.74;101710.44;4901361;29;20048;-74
2022/05/08 00:43:46;;;;;;;5.82;3.25;;;;;;;12.49;94.51;101701.78;4900537;29;20465;-74
2022/05/08 00:46:31;;;;;;;4.57;2.67;;;;;;;12.51;95.17;101707.91;4900738;29;20052;-74
2022/05/08 00:49:17;;;;;;;5.60;3.30;;;;;;;12.53;93.75;101703.50;4900813;29;20033;-74
2022/05/08 00:52:04;;;;;;;7.50;3.50;;;;;;;12.56;93.76;101703.47;4903982;29;20454;-74
2022/05/08 00:54:50;;;;;;;5.28;3.00;;;;;;;12.45;95.57;101701.81;4900898;29;20036;-74
2022/05/08 00:57:38;;;;;;;4.13;3.20;;;;;;;12.44;95.29;101700.09;4900876;29;20033;-74
2022/05/08 01:00:24;;;;;;;6.28;3.25;;;;;;;12.68;93.74;101705.97;4913633;29;20040;-74
2022/05/08 01:03:13;;;;;;;7.15;3.40;;;;;;;11.83;100.00;101698.84;4900754;29;20140;-75
2022/05/08 01:06:04;;;;;;;8.80;3.78;;;;;;;12.14;99.23;101695.97;4901909;29;20047;-74
2022/05/08 01:08:51;;;;;;;6.82;3.42;;;;;;;12.13;100.00;101703.88;4899823;29;20049;-74
2022/05/08 01:11:37;;;;;;;12.55;3.65;;;;;;;12.33;99.16;101702.81;4900798;29;20054;-74
2022/05/08 01:14:22;;;;;;;8.18;3.20;;;;;;;12.37;99.38;101703.66;4925608;29;20049;-75
2022/05/08 01:17:08;;;;;;;8.30;3.65;;;;;;;12.40;98.75;101699.25;4900210;29;20044;-75
2022/05/08 01:19:54;;;;;;;6.22;3.72;;;;;;;12.51;97.18;101691.25;4899360;29;20032;-75
2022/05/08 01:22:41;;;;;;;6.72;3.40;;;;;;;12.26;99.64;101690.59;4900329;29;20533;-75
2022/05/08 01:25:26;;;;;;;6.10;3.45;;;;;;;11.72;100.00;101688.41;4900044;29;20382;-74
2022/05/08 01:28:13;;;;;;;10.02;3.58;;;;;;;12.14;98.42;101685.44;4900452;29;20024;-74
2022/05/08 01:30:59;;;;;;;7.18;3.60;;;;;;;11.90;100.00;101688.28;4901112;29;20037;-74
2022/05/08 01:33:45;;;;;;;8.52;3.50;;;;;;;12.02;100.00;101685.56;4900469;29;20028;-74
2022/05/08 01:36:31;;;;;;;5.30;3.28;;;;;;;12.15;100.00;101691.59;4925754;29;20033;-74
2022/05/08 01:39:17;;;;;;;6.00;3.50;;;;;;;11.91;100.00;101697.91;4900365;29;20025;-75
2022/05/08 01:42:06;;;;;;;6.82;3.92;;;;;;;11.87;100.00;101696.19;4899858;29;20056;-75
2022/05/08 01:44:51;;;;;;;5.95;3.50;;;;;;;12.03;100.00;101694.31;4911249;29;20040;-75
2022/05/08 01:50:43;;;;;;;6.47;4.05;;;;;;;11.95;100.00;101690.88;4898977;29;20473;-74
2022/05/08 01:53:35;;;;;;;9.40;3.90;;;;;;;12.06;100.00;101689.91;4899083;29;20028;-74
2022/05/08 01:56:21;;;;;;;10.75;4.30;;;;;;;12.06;100.00;101689.06;4900632;29;20044;-75
2022/05/08 01:59:07;;;;;;;6.35;3.60;;;;;;;12.23;100.00;101695.91;4900257;29;20036;-75
2022/05/08 02:01:52;;;;;;;5.80;3.67;;;;;;;12.25;96.01;101693.25;4899472;29;20043;-74
2022/05/08 02:04:40;;;;;;;8.82;3.70;;;;;;;11.93;97.55;101693.50;4899563;29;20046;-74
2022/05/08 02:07:25;;;;;;;9.93;3.83;;;;;;;11.54;99.59;101698.13;4899226;29;20028;-74
2022/05/08 02:10:12;;;;;;;5.80;3.83;;;;;;;10.94;100.00;101693.16;4899931;29;20042;-75
2022/05/08 02:12:58;;;;;;;10.85;4.10;;;;;;;11.28;100.00;101698.25;4897869;29;20032;-75
2022/05/08 02:15:44;;;;;;;9.48;4.00;;;;;;;11.00;100.00;101701.88;4912408;29;20024;-74
2022/05/08 02:18:30;;;;;;;7.97;3.80;;;;;;;11.11;100.00;101699.22;4899504;29;20028;-75
2022/05/08 02:21:16;;;;;;;9.32;3.65;;;;;;;11.41;100.00;101707.81;4898923;29;20032;-74
2022/05/08 02:24:01;;;;;;;8.30;3.80;;;;;;;11.58;100.00;101703.34;4899030;29;20123;-75
2022/05/08 02:26:47;;;;;;;8.48;4.25;;;;;;;11.34;100.00;101706.13;4898942;29;20498;-74
2022/05/08 02:29:33;;;;;;;7.18;4.00;;;;;;;11.54;100.00;101709.47;4898987;29;20135;-75
2022/05/08 02:32:18;;;;;;;8.65;4.45;;;;;;;11.41;100.00;101701.72;4910684;29;20131;-74
2022/05/08 02:35:06;;;;;;;6.75;3.90;;;;;;;11.22;100.00;101700.03;4910795;29;20035;-75
2022/05/08 02:37:54;;;;;;;9.80;4.40;;;;;;;11.33;100.00;101704.34;4898881;29;20426;-74
2022/05/08 02:40:40;;;;;;;9.65;4.40;;;;;;;11.21;100.00;101701.78;4912015;29;20446;-74
2022/05/08 02:43:26;;;;;;;6.53;4.32;;;;;;;11.52;100.00;101706.00;4910712;29;20048;-75
2022/05/08 02:46:12;;;;;;;8.82;4.70;;;;;;;11.42;100.00;101704.34;4899110;29;20107;-74
2022/05/08 02:48:57;;;;;;;8.23;4.55;;;;;;;11.21;100.00;101704.41;4898914;29;20044;-74
2022/05/08 02:51:43;;;;;;;11.30;4.88;;;;;;;11.28;100.00;101711.38;4898855;29;20032;-74
2022/05/08 02:54:29;;;;;;;10.45;4.47;;;;;;;11.30;100.00;101712.25;4898900;29;20447;-75
2022/05/08 03:00:19;;;;;;;11.27;5.00;;;;;;;11.04;100.00;101710.59;4899168;29;20092;-75
2022/05/08 03:03:06;;;;;;;6.00;4.28;;;;;;;10.97;100.00;101714.13;4898047;29;20161;-74
2022/05/08 03:05:52;;;;;;;8.77;4.03;;;;;;;10.40;100.00;101716.88;4898880;29;20033;-74
2022/05/08 03:08:38;;;;;;;11.57;4.68;;;;;;;10.12;100.00;101726.47;4898419;29;20024;-74
2022/05/08 03:11:26;;;;;;;9.50;4.80;;;;;;;9.83;100.00;101718.56;4898677;29;20029;-74
2022/05/08 03:14:12;;;;;;;11.70;5.47;;;;;;;9.47;100.00;101723.72;4896653;29;20045;-73
2022/05/08 03:16:58;;;;;;;9.63;5.50;;;;;;;9.74;100.00;101713.31;4899024;29;20025;-74
2022/05/08 03:19:44;;;;;;;13.80;6.25;;;;;;;10.21;100.00;101728.22;4898487;29;20091;-74
2022/05/08 03:22:29;;;;;;;21.80;6.68;;;;;;;10.49;100.00;101733.44;4924149;29;20025;-75
2022/05/08 03:25:15;;;;;;;12.50;6.15;;;;;;;10.52;100.00;101733.44;4898099;29;20033;-74
2022/05/08 03:28:01;;;;;;;16.35;6.30;;;;;;;10.58;100.00;101735.19;4898509;29;20028;-74
2022/05/08 03:30:47;;;;;;;9.73;5.90;;;;;;;10.54;100.00;101742.19;4898496;29;20450;-74
2022/05/08 03:33:35;;;;;;;8.75;5.65;;;;;;;10.45;100.00;101744.78;4898460;29;20131;-74
2022/05/08 03:36:21;;;;;;;11.82;6.13;;;;;;;10.80;100.00;101745.63;4886565;29;20088;-74
2022/05/08 03:39:06;;;;;;;12.02;5.88;;;;;;;10.64;100.00;101740.44;4911053;29;20096;-74
2022/05/08 03:41:52;;;;;;;11.45;6.43;;;;;;;10.96;100.00;101736.84;4900226;29;20032;-75
2022/05/08 03:44:39;;;;;;;14.32;6.55;;;;;;;10.80;100.00;101750.88;4914310;29;20024;-74
2022/05/08 03:47:24;;;;;;;15.15;6.88;;;;;;;10.75;100.00;101746.50;4903452;29;20028;-75
2022/05/08 03:50:10;;;;;;;14.65;6.40;;;;;;;10.57;100.00;101752.66;4914888;29;20168;-74
2022/05/08 03:52:57;;;;;;;18.90;7.40;;;;;;;10.77;100.00;101756.13;4902550;29;20032;-75
2022/05/08 03:55:43;;;;;;;14.50;7.07;;;;;;;10.71;100.00;101753.53;4902081;29;20032;-75
2022/05/08 03:58:29;;;;;;;14.70;7.38;;;;;;;10.60;100.00;101762.28;4928166;29;20040;-75
2022/05/08 04:01:15;;;;;;;12.07;7.15;;;;;;;10.08;100.00;101750.91;4900351;29;20039;-74
2022/05/08 04:04:02;;;;;;;15.68;6.40;;;;;;;10.26;100.00;101757.91;4901069;29;20047;-75
2022/05/08 04:06:48;;;;;;;13.95;6.50;;;;;;;10.65;100.00;101758.75;4902624;29;20037;-74
2022/05/08 04:09:34;;;;;;;16.40;6.30;;;;;;;10.83;100.00;101760.47;4901742;29;20429;-75
2022/05/08 04:12:20;;;;;;;9.38;4.93;;;;;;;10.90;100.00;101755.25;4902018;29;20035;-75
2022/05/08 04:18:11;;;;;;;7.53;4.93;;;;;;;9.97;100.00;101750.00;4901242;29;20055;-76
2022/05/08 04:20:56;;;;;;;6.88;4.75;;;;;;;10.34;100.00;101751.81;4901322;29;20025;-75
2022/05/08 04:26:47;;;;;;;8.05;4.82;;;;;;;10.69;100.00;101755.25;4900738;29;20020;-75
2022/05/08 04:29:33;;;;;;;9.30;5.13;;;;;;;10.48;100.00;101764.91;4901671;29;20436;-75
2022/05/08 04:32:19;;;;;;;10.13;4.85;;;;;;;10.72;100.00;101759.66;4914065;29;20028;-75
2022/05/08 04:35:07;;;;;;;10.77;4.85;;;;;;;10.91;100.00;101758.72;4901743;29;20107;-75
2022/05/08 04:37:53;;;;;;;8.15;5.18;;;;;;;11.00;100.00;101759.56;4901553;29;20025;-74
2022/05/08 04:40:42;;;;;;;8.20;4.95;;;;;;;11.53;100.00;101765.47;4901239;29;20061;-74
2022/05/08 04:43:28;;;;;;;10.07;4.95;;;;;;;11.03;100.00;101759.56;4914668;29;20443;-75
2022/05/08 04:46:13;;;;;;;10.02;4.55;;;;;;;11.37;100.00;101766.44;4926895;29;20041;-75
2022/05/08 04:48:59;;;;;;;14.57;5.47;;;;;;;11.11;100.00;101768.28;4901002;29;20060;-75
2022/05/08 04:51:45;;;;;;;10.13;5.68;;;;;;;10.87;100.00;101768.34;4901577;29;20024;-74
2022/05/08 04:54:31;;;;;;;13.35;6.20;;;;;;;10.57;100.00;101776.22;4900887;29;20024;-75
2022/05/08 04:57:16;;;;;;;11.02;5.82;;;;;;;10.38;100.00;101771.00;4901875;29;20032;-76
2022/05/08 05:00:03;;;;;;;9.50;5.90;;;;;;;10.22;100.00;101771.88;4926392;29;20096;-75
2022/05/08 05:02:49;;;;;;;10.02;5.85;;;;;;;10.07;100.00;101775.34;4900940;29;20037;-75
2022/05/08 05:05:35;;;;;;;9.98;5.80;;;;;;;10.47;100.00;101787.59;4899582;29;20038;-75
2022/05/08 05:08:21;;;;;;;11.88;5.18;;;;;;;10.77;100.00;101784.09;4900480;29;20044;-75
2022/05/08 05:11:10;;;;;;;10.80;5.82;;;;;;;10.70;100.00;101787.59;4900355;29;20028;-75
2022/05/08 05:13:56;;;;;;;11.18;5.13;;;;;;;11.11;100.00;101791.00;4913302;29;20041;-75
2022/05/08 05:16:42;;;;;;;10.73;5.47;;;;;;;10.77;100.00;101790.19;4913940;29;20040;-76
2022/05/08 05:19:28;;;;;;;11.43;5.45;;;;;;;10.60;100.00;101793.72;4899151;29;20042;-75
2022/05/08 05:22:13;;;;;;;9.27;5.38;;;;;;;10.99;100.00;101794.53;4900509;29;20033;-75
2022/05/08 05:24:59;;;;;;;9.88;5.40;;;;;;;11.24;100.00;101798.84;4901036;29;20039;-75
2022/05/08 05:27:45;;;;;;;10.88;4.90;;;;;;;11.40;100.00;101802.28;4900718;29;20035;-75
2022/05/08 05:30:30;;;;;;;9.38;5.07;;;;;;;11.71;100.00;101796.94;4913030;29;20492;-75
2022/05/08 05:33:16;;;;;;;9.32;5.10;;;;;;;12.11;100.00;101793.22;4911809;29;20029;-75
2022/05/08 05:36:02;;;;;;;10.05;5.30;;;;;;;12.55;100.00;101799.00;4900376;29;20131;-75
2022/05/08 05:38:48;;;;;;;9.93;4.90;;;;;;;12.49;100.00;101798.16;4900415;29;20029;-76
2022/05/08 05:41:34;;;;;;;10.38;4.90;;;;;;;12.66;100.00;101797.13;4900419;29;20025;-76
2022/05/08 05:44:20;;;;;;;9.68;4.80;;;;;;;12.24;100.00;101792.25;4899543;29;20119;-76
2022/05/08 05:50:11;;;;;;;12.45;5.10;;;;;;;12.92;100.00;101796.91;4899721;29;20028;-74
2022/05/08 05:52:56;;;;;;;9.65;4.50;;;;;;;12.99;100.00;101798.63;4900089;29;20040;-75
2022/05/08 05:55:42;;;;;;;9.70;4.40;;;;;;;12.97;100.00;101790.75;4899364;29;20365;-75
2022/05/08 05:58:28;;;;;;;13.57;4.78;;;;;;;13.09;100.00;101789.72;4899385;29;20083;-77
2022/05/08 06:01:14;;;;;;;8.88;4.68;;;;;;;13.12;100.00;101787.06;4898620;29;20064;-76
2022/05/08 06:04:03;;;;;;;9.35;4.70;;;;;;;12.81;100.00;101786.47;4899562;29;20096;-75
2022/05/08 06:06:49;;;;;;;10.38;5.10;;;;;;;12.43;100.00;101780.72;4899479;29;20025;-76
2022/05/08 06:09:34;;;;;;;10.98;4.50;;;;;;;12.04;100.00;101778.38;4899335;29;20176;-76
2022/05/08 06:12:20;;;;;;;9.82;4.55;;;;;;;12.64;100.00;101782.25;4899671;29;20493;-75
2022/05/08 06:15:08;;;;;;;9.20;4.32;;;;;;;12.48;100.00;101784.16;4899179;29;20067;-76
2022/05/08 06:17:57;;;;;;;8.13;4.32;;;;;;;12.54;100.00;101778.00;4899698;29;20036;-76
2022/05/08 06:20:43;;;;;;;11.13;4.30;;;;;;;12.86;100.00;101778.56;4899727;29;20070;-75
2022/05/08 06:23:29;;;;;;;7.55;4.35;;;;;;;13.16;100.00;101787.03;4900478;29;20028;-75
2022/05/08 06:26:15;;;;;;;7.13;4.10;;;;;;;13.18;100.00;101782.63;4899039;29;20035;-75
2022/05/08 06:29:01;;;;;;;7.88;4.38;;;;;;;13.64;100.00;101780.31;4900379;29;20032;-75
2022/05/08 06:31:48;;;;;;;12.15;4.22;;;;;;;13.75;100.00;101779.25;4899534;29;20358;-75
2022/05/08 06:34:34;;;;;;;11.55;4.55;;;;;;;13.61;100.00;101775.06;4900073;29;20355;-76
2022/05/08 06:37:19;;;;;;;8.93;3.80;;;;;;;13.80;100.00;101771.31;4899518;29;20028;-75
2022/05/08 06:40:06;;;;;;;9.77;3.83;;;;;;;13.77;100.00;101776.59;4898776;29;20451;-75
2022/05/08 06:42:52;;;;;;;10.95;4.47;;;;;;;14.04;100.00;101776.22;4899108;29;20458;-75
2022/05/08 06:45:37;;;;;;;11.10;4.30;;;;;;;14.69;100.00;101776.94;4898806;29;20096;-76
2022/05/08 06:48:23;;;;;;;13.35;4.40;;;;;;;14.79;100.00;101773.22;4911183;29;20040;-76
2022/05/08 06:51:11;;;;;;;10.85;4.35;;;;;;;14.91;98.17;101780.03;4898745;29;20107;-77
2022/05/08 06:53:56;;;;;;;7.60;3.95;;;;;;;14.25;100.00;101779.44;4900268;29;20126;-76
2022/05/08 06:56:42;;;;;;;8.68;4.35;;;;;;;14.12;100.00;101779.63;4898421;29;20107;-75
2022/05/08 07:02:40;;;;;;;7.70;4.05;;;;;;;14.69;100.00;101784.84;4898152;29;20029;-75
2022/05/08 07:05:26;;;;;;;11.25;4.07;;;;;;;14.55;100.00;101780.72;4899403;29;20032;-76
2022/05/08 07:08:12;;;;;;;9.38;4.15;;;;;;;14.81;97.75;101783.75;4911089;29;20095;-76
2022/05/08 07:11:00;;;;;;;8.38;4.22;;;;;;;14.22;100.00;101775.97;4898819;29;20032;-75
2022/05/08 07:13:45;;;;;;;8.48;4.47;;;;;;;14.78;100.00;101789.09;4899539;29;20040;-77
2022/05/08 07:16:31;;;;;;;6.53;4.47;;;;;;;14.90;99.14;101793.28;4901132;29;20037;-76
2022/05/08 07:19:17;;;;;;;8.63;4.25;;;;;;;15.10;96.83;101794.66;4901334;29;20380;-76
2022/05/08 07:22:03;;;;;;;11.60;4.20;;;;;;;15.56;94.83;101794.66;4902827;29;20047;-76
2022/05/08 07:24:49;;;;;;;9.18;4.30;;;;;;;15.31;95.49;101799.50;4902297;29;20085;-76
2022/05/08 07:27:36;;;;;;;7.70;3.58;;;;;;;15.69;88.15;101789.09;4901983;29;20489;-76
2022/05/08 07:30:22;;;;;;;9.05;3.78;;;;;;;15.22;95.24;101796.22;4902499;29;20032;-75
2022/05/08 07:33:08;;;;;;;9.15;3.60;;;;;;;14.83;97.35;101788.13;4901177;29;20424;-76
2022/05/08 07:38:58;;;;;;;6.75;3.75;;;;;;;15.35;94.84;101797.75;4901442;29;20060;-76
2022/05/08 07:41:43;;;;;;;8.27;3.83;;;;;;;15.91;89.60;101795.63;4902587;29;20039;-76
2022/05/08 07:44:29;;;;;;;9.48;4.07;;;;;;;15.33;92.62;101804.75;4914334;29;20024;-76
2022/05/08 07:47:15;;;;;;;8.50;3.95;;;;;;;15.90;89.55;101787.72;4902811;29;20031;-76
2022/05/08 07:50:01;;;;;;;10.00;3.90;;;;;;;15.92;87.54;101797.41;4903232;29;20044;-76
2022/05/08 07:52:46;;;;;;;7.63;3.85;;;;;;;16.53;85.12;101795.09;4900712;29;20036;-76
2022/05/08 07:55:32;;;;;;;10.15;4.00;;;;;;;15.99;85.20;101806.06;4902268;29;20047;-75
2022/05/08 07:58:19;;;;;;;7.53;3.80;;;;;;;16.08;87.18;101801.41;4914026;29;20040;-76
2022/05/08 08:01:04;;;;;;;6.82;3.70;;;;;;;16.46;86.07;101809.34;4902090;29;20043;-77
2022/05/08 08:03:50;;;;;;;7.18;3.60;;;;;;;15.90;87.19;101804.47;4915140;29;20029;-76
2022/05/08 08:06:36;;;;;;;5.75;3.83;;;;;;;16.19;87.98;101802.03;4902416;29;20036;-75
2022/05/08 08:09:22;;;;;;;4.85;3.35;;;;;;;16.89;82.65;101806.50;4913884;29;20024;-77
2022/05/08 08:12:08;;;;;;;6.55;3.50;;;;;;;16.69;82.71;101807.03;4901999;29;20033;-77
2022/05/08 08:14:53;;;;;;;5.95;3.70;;;;;;;16.72;83.30;101803.44;4913481;29;20045;-76
2022/05/08 08:17:39;;;;;;;7.30;4.10;;;;;;;16.41;84.70;101805.09;4901658;29;20041;-76
2022/05/08 08:20:25;;;;;;;5.95;3.97;;;;;;;17.24;83.23;101812.59;4902095;29;20376;-77
2022/05/08 08:23:11;;;;;;;11.38;3.90;;;;;;;17.59;78.53;101812.50;4914522;29;20042;-75
2022/05/08 08:25:57;;;;;;;5.68;3.55;;;;;;;17.16;75.85;101811.94;4900901;29;20110;-76
2022/05/08 08:28:43;;;;;;;8.45;3.53;;;;;;;17.35;74.15;101810.53;4900318;29;20459;-76
2022/05/08 08:31:29;;;;;;;6.20;3.42;;;;;;;17.85;72.11;101795.84;4913393;29;20060;-76
2022/05/08 08:34:14;;;;;;;8.27;3.40;;;;;;;18.05;70.21;101796.09;4900733;29;20025;-75
2022/05/08 08:37:00;;;;;;;5.20;3.58;;;;;;;17.34;71.74;101802.59;4900985;29;20036;-76
2022/05/08 08:39:46;;;;;;;4.78;3.40;;;;;;;17.84;72.73;101797.63;4901353;29;20028;-76
2022/05/08 08:42:32;;;;;;;7.28;3.40;;;;;;;18.61;69.91;101803.16;4926951;29;20111;-76
2022/05/08 08:48:33;;;;;;;6.93;3.70;;;;;;;18.99;70.97;101787.66;4900830;29;20025;-76
2022/05/08 08:51:18;;;;;;;10.00;4.00;;;;;;;19.17;68.68;101792.28;4901619;29;20039;-76
2022/05/08 08:54:04;;;;;;;20.02;8.35;;;;;;;19.04;71.01;101798.09;4901054;29;20366;-76
2022/05/08 08:56:50;;;;;;;6.35;3.53;;;;;;;18.81;71.39;101796.22;4901400;29;20028;-75
2022/05/08 08:59:36;;;;;;;6.43;3.72;;;;;;;18.63;74.74;101777.41;4900522;29;20112;-76
2022/05/08 09:02:22;;;;;;;6.93;3.95;;;;;;;18.90;74.09;101787.94;4900722;29;20047;-76
2022/05/08 09:05:09;;;;;;;6.80;3.42;;;;;;;19.59;70.33;101781.03;4900452;29;20039;-76
2022/05/08 09:07:56;;;;;;;8.98;3.38;;;;;;;19.99;68.53;101782.13;4900745;29;20036;-75
2022/05/08 09:10:44;;;;;;;6.95;3.83;;;;;;;19.48;70.53;101778.78;4913611;29;20037;-77
2022/05/08 09:13:31;;;;;;;7.57;3.92;;;;;;;19.59;69.16;101775.72;4901562;29;20055;-77
2022/05/08 09:16:17;;;;;;;9.05;3.35;;;;;;;20.05;67.74;101771.22;4900263;29;20047;-75
2022/05/08 09:19:04;;;;;;;6.43;3.55;;;;;;;20.98;66.57;101772.66;4899944;29;20442;-76
2022/05/08 09:21:58;;;;;;;6.13;3.47;;;;;;;22.06;61.16;101769.47;4900340;29;20549;-76
2022/05/08 09:24:54;;;;;;;6.40;3.40;;;;;;;21.42;61.95;101773.38;4900188;29;20064;-77
2022/05/08 09:27:39;;;;;;;5.88;3.25;;;;;;;21.42;61.81;101771.56;4899640;29;20069;-76
2022/05/08 09:30:26;;;;;;;6.13;3.78;;;;;;;20.82;63.89;101774.22;4900082;29;20446;-76
2022/05/08 09:33:22;;;;;;;8.88;3.75;;;;;;;21.45;63.23;101771.44;4900933;29;20033;-75
2022/05/08 09:36:16;;;;;;;7.95;3.78;;;;;;;20.80;64.69;101772.56;4900515;29;20418;-75
2022/05/08 09:39:05;;;;;;;7.40;3.65;;;;;;;20.88;64.84;101765.97;4899217;29;20024;-76
2022/05/08 09:41:53;;;;;;;7.32;3.30;;;;;;;21.12;66.39;101769.41;4899959;29;20040;-77
2022/05/08 09:45:07;;;;;;;7.30;3.70;;;;;;;21.26;65.94;101764.34;4900653;29;20028;-76
2022/05/08 09:47:57;;;;;;;10.60;3.88;;;;;;;20.78;68.89;101763.78;4925526;29;20033;-76
2022/05/08 09:50:44;;;;;;;6.78;3.78;;;;;;;21.07;67.92;101769.63;4899692;29;20370;-77
2022/05/08 09:53:31;;;;;;;8.77;3.60;;;;;;;20.89;69.86;101762.38;4911937;29;20358;-76
2022/05/08 09:56:17;;;;;;;11.30;4.00;;;;;;;21.09;68.53;101764.22;4899799;29;20028;-77
2022/05/08 09:59:07;;;;;;;9.48;5.28;;;;;;;20.83;71.83;101768.00;4899914;29;20029;-76
2022/05/08 10:01:53;;;;;;;5.93;3.50;;;;;;;21.02;70.76;101762.75;4899908;29;20397;-77
2022/05/08 10:04:39;;;;;;;8.48;3.70;;;;;;;20.96;71.26;101753.22;4899469;29;20079;-76
2022/05/08 10:07:25;;;;;;;7.93;3.42;;;;;;;21.01;71.92;101758.38;4898529;29;20029;-76
2022/05/08 10:16:55;;;;;;;8.15;3.47;;;;;;;21.09;75.46;101748.25;4899580;29;20063;-75
2022/05/08 10:19:45;;;;;;;10.13;3.85;;;;;;;21.37;73.18;101746.03;4899752;29;20043;-76
2022/05/08 10:22:50;;;;;;;8.48;3.78;;;;;;;21.64;72.67;101742.09;4899594;29;20056;-76
2022/05/08 10:25:36;;;;;;;8.10;3.58;;;;;;;21.52;71.31;101734.66;4925097;29;20035;-75
2022/05/08 10:28:22;;;;;;;9.90;3.95;;;;;;;20.97;74.90;101746.97;4898927;29;20032;-76
2022/05/08 10:31:45;;;;;;;15.73;4.15;;;;;;;21.24;72.46;101743.06;4911461;29;20035;-76
2022/05/08 10:34:32;;;;;;;5.47;3.50;;;;;;;21.23;73.87;101740.47;4898307;29;20112;-77
2022/05/08 10:37:25;;;;;;;6.95;3.78;;;;;;;21.13;74.49;101732.03;4899004;29;20454;-76
2022/05/08 10:40:23;;;;;;;8.43;4.00;;;;;;;20.53;79.80;101736.47;4898946;29;20040;-76
2022/05/08 10:43:12;;;;;;;11.25;3.75;;;;;;;20.32;79.95;101726.69;4899035;29;20370;-75
2022/05/08 10:46:21;;;;;;;6.45;3.50;;;;;;;20.69;82.13;101733.06;4899540;29;20036;-76
2022/05/08 10:49:07;;;;;;;6.15;3.60;;;;;;;20.55;83.15;101724.81;4924691;29;20365;-76
2022/05/08 10:51:52;;;;;;;6.55;3.28;;;;;;;20.93;81.61;101721.38;4898257;29;20452;-76
2022/05/08 10:54:57;;;;;;;8.63;3.80;;;;;;;20.73;82.15;101724.00;4898559;29;20021;-76
2022/05/08 10:57:52;;;;;;;5.78;3.33;;;;;;;20.85;81.53;101714.66;4898581;29;20028;-77
2022/05/08 11:00:38;;;;;;;7.82;3.40;;;;;;;20.79;81.95;101706.91;4898324;29;20029;-76
2022/05/08 11:03:25;;;;;;;7.50;3.33;;;;;;;20.82;82.23;101701.44;4897937;29;20037;-75
2022/05/08 11:06:19;;;;;;;4.97;3.28;;;;;;;20.80;81.53;101706.84;4898215;29;20361;-75
2022/05/08 11:09:04;;;;;;;5.35;3.15;;;;;;;20.58;82.29;101699.84;4897901;29;20040;-76
2022/05/08 11:11:51;;;;;;;8.98;3.20;;;;;;;21.02;80.44;101689.00;4924160;29;20032;-75
2022/05/08 11:14:36;;;;;;;9.35;3.70;;;;;;;21.13;81.69;101684.03;4911076;29;20080;-76
2022/05/08 11:17:22;;;;;;;5.63;3.50;;;;;;;20.63;82.50;101690.75;4899133;29;20033;-76
2022/05/08 11:20:08;;;;;;;5.85;3.00;;;;;;;21.26;76.94;101681.69;4898459;29;20131;-76
2022/05/08 11:22:56;;;;;;;4.32;3.10;;;;;;;21.95;73.39;101681.03;4898264;29;20446;-76
2022/05/08 11:25:46;;;;;;;5.40;3.17;;;;;;;21.99;71.69;101674.63;4899130;29;20036;-75
2022/05/08 11:28:34;;;;;;;7.95;3.53;;;;;;;22.22;70.86;101672.50;4899057;29;20025;-75
2022/05/08 11:31:20;;;;;;;6.68;3.22;;;;;;;22.53;70.35;101664.72;4900645;29;20062;-74
2022/05/08 11:37:20;;;;;;;5.55;2.58;;;;;;;22.30;58.92;101656.97;4905083;29;20457;-77
2022/05/08 11:40:07;;;;;;;4.10;2.20;;;;;;;22.16;56.98;101653.28;4911791;29;20028;-77
2022/05/08 11:42:53;;;;;;;5.60;2.42;;;;;;;22.32;55.53;101647.09;4898391;29;20053;-76
2022/05/08 11:45:56;;;;;;;4.05;2.20;;;;;;;22.07;55.28;101641.25;4900746;29;20028;-77
2022/05/08 11:48:43;;;;;;;4.75;2.20;;;;;;;22.18;55.20;101638.91;4925787;29;20537;-77
2022/05/08 11:51:41;;;;;;;5.45;2.40;;;;;;;22.21;53.44;101637.88;4897474;29;20104;-76
2022/05/08 11:54:35;;;;;;;6.70;2.50;;;;;;;22.46;53.87;101631.25;4898215;29;20028;-77
2022/05/08 11:57:23;;;;;;;6.22;2.70;;;;;;;22.23;53.95;101634.19;4898052;29;20040;-77
2022/05/08 12:00:12;;;;;;;5.15;2.08;;;;;;;22.81;53.65;101624.91;4898238;29;20028;-76
2022/05/08 12:02:57;;;;;;;4.10;2.13;;;;;;;22.87;53.19;101613.03;4898871;29;20186;-76
2022/05/08 12:05:43;;;;;;;4.00;2.30;;;;;;;22.54;51.64;101626.38;4900564;29;20104;-75
2022/05/08 12:08:29;;;;;;;5.28;2.35;;;;;;;22.49;48.33;101619.53;4901806;29;20089;-77
2022/05/08 12:11:31;;;;;;;4.20;2.13;;;;;;;22.52;47.51;101616.72;4901700;29;20067;-76
2022/05/08 12:14:29;;;;;;;4.22;1.95;;;;;;;22.50;47.07;101619.47;4901204;29;20117;-76
2022/05/08 12:17:16;;;;;;;5.40;2.08;;;;;;;22.27;45.49;101617.06;4927064;29;20434;-77
2022/05/08 12:20:09;;;;;;;5.88;1.98;;;;;;;22.65;45.22;101607.09;4902291;29;20036;-76
2022/05/08 12:23:00;;;;;;;5.32;2.10;;;;;;;22.55;44.57;101601.38;4901913;29;20367;-76
2022/05/08 12:25:48;;;;;;;5.60;2.20;;;;;;;22.41;45.66;101598.53;4901456;29;20036;-76
2022/05/08 12:28:44;;;;;;;5.03;2.47;;;;;;;22.82;45.21;101602.59;4927135;29;20035;-76
2022/05/08 12:31:30;;;;;;;3.50;2.20;;;;;;;22.89;45.36;101595.09;4900821;29;20592;-76
2022/05/08 12:34:20;;;;;;;4.72;2.42;;;;;;;23.27;45.12;101600.09;4913758;29;20032;-76
2022/05/08 12:37:05;;;;;;;4.45;2.20;;;;;;;22.77;45.36;101595.75;4901057;29;20467;-78
2022/05/08 12:39:51;;;;;;;3.28;2.03;;;;;;;23.28;44.01;101592.94;4900869;29;20481;-76
2022/05/08 12:42:38;;;;;;;6.80;2.28;;;;;;;22.99;44.11;101591.81;4901744;29;20032;-77
2022/05/08 12:45:24;;;;;;;5.60;2.35;;;;;;;22.74;44.71;101591.44;4900895;29;20032;-76
2022/05/08 12:48:09;;;;;;;6.75;2.20;;;;;;;23.25;45.20;101593.97;4901327;29;20032;-75
2022/05/08 12:50:55;;;;;;;4.75;2.40;;;;;;;23.31;44.04;101587.44;4912544;29;20033;-76
2022/05/08 12:53:41;;;;;;;5.10;2.55;;;;;;;22.68;43.56;101586.44;4900736;29;20377;-76
2022/05/08 12:56:28;;;;;;;4.97;1.95;;;;;;;22.85;43.09;101572.16;4901014;29;20472;-76
2022/05/08 13:02:19;;;;;;;3.47;2.28;;;;;;;22.75;43.22;101566.44;4900313;29;20028;-77
2022/05/08 13:05:05;;;;;;;3.75;2.22;;;;;;;22.99;41.94;101570.44;4901135;29;20033;-75
2022/05/08 13:07:50;;;;;;;5.65;2.30;;;;;;;22.60;41.79;101566.41;4926372;29;20044;-77
2022/05/08 13:10:36;;;;;;;5.85;2.50;;;;;;;22.74;41.51;101562.03;4900638;29;20502;-76
2022/05/08 13:13:22;;;;;;;4.07;2.40;;;;;;;22.71;41.70;101567.53;4900040;29;20481;-76
2022/05/08 13:16:11;;;;;;;4.63;2.15;;;;;;;23.10;42.23;101559.16;4901183;29;20024;-76
2022/05/08 13:18:57;;;;;;;5.78;2.65;;;;;;;23.03;43.04;101561.31;4914138;29;20043;-76
2022/05/08 13:21:44;;;;;;;5.28;2.30;;;;;;;23.61;44.12;101560.72;4899710;29;20024;-76
2022/05/08 13:24:30;;;;;;;5.55;2.40;;;;;;;23.52;44.81;101554.94;4900650;29;20036;-76
2022/05/08 13:27:16;;;;;;;4.85;2.58;;;;;;;22.85;45.54;101554.31;4900646;29;20039;-77
2022/05/08 13:30:04;;;;;;;8.38;2.35;;;;;;;22.93;44.10;101552.09;4900603;29;20025;-76